sensor_id;sensor_type;location;lat;lon;timestamp;P1;durP1;ratioP1;P2;durP2;ratioP2
61685;SDS011;47592;45.904;8.978;2023-12-22T00:02:06;7.45;;;4.40;;
61685;SDS011;47592;45.904;8.978;2023-12-22T00:04:33;9.40;;;4.95;;
61685;SDS011;47592;45.904;8.978;2023-12-22T00:07:01;7.30;;;4.28;;
61685;SDS011;47592;45.904;8.978;2023-12-22T00:09:31;5.35;;;2.90;;
61685;SDS011;47592;45.904;8.978;2023-12-22T00:11:56;5.88;;;3.35;;
61685;SDS011;47592;45.904;8.978;2023-12-22T00:14:24;8.15;;;4.00;;
61685;SDS011;47592;45.904;8.978;2023-12-22T00:16:57;3.72;;;1.17;;
61685;SDS011;47592;45.904;8.978;2023-12-22T00:19:23;4.00;;;1.33;;
61685;SDS011;47592;45.904;8.978;2023-12-22T00:21:51;5.50;;;1.48;;
61685;SDS011;47592;45.904;8.978;2023-12-22T00:24:16;6.85;;;3.80;;
61685;SDS011;47592;45.904;8.978;2023-12-22T00:26:42;6.05;;;3.28;;
61685;SDS011;47592;45.904;8.978;2023-12-22T00:29:07;6.53;;;3.63;;
61685;SDS011;47592;45.904;8.978;2023-12-22T00:31:32;5.80;;;3.42;;
61685;SDS011;47592;45.904;8.978;2023-12-22T00:33:58;5.50;;;3.15;;
61685;SDS011;47592;45.904;8.978;2023-12-22T00:36:26;6.20;;;3.30;;
61685;SDS011;47592;45.904;8.978;2023-12-22T00:38:51;6.35;;;2.83;;
61685;SDS011;47592;45.904;8.978;2023-12-22T00:41:19;3.17;;;1.20;;
61685;SDS011;47592;45.904;8.978;2023-12-22T00:43:44;3.15;;;1.00;;
61685;SDS011;47592;45.904;8.978;2023-12-22T00:46:10;5.05;;;2.30;;
61685;SDS011;47592;45.904;8.978;2023-12-22T00:48:37;5.60;;;2.85;;
61685;SDS011;47592;45.904;8.978;2023-12-22T00:51:05;6.10;;;2.78;;
61685;SDS011;47592;45.904;8.978;2023-12-22T00:53:33;7.20;;;3.20;;
61685;SDS011;47592;45.904;8.978;2023-12-22T00:56:01;5.25;;;2.35;;
61685;SDS011;47592;45.904;8.978;2023-12-22T00:58:28;5.65;;;2.78;;
61685;SDS011;47592;45.904;8.978;2023-12-22T01:00:56;5.45;;;2.22;;
61685;SDS011;47592;45.904;8.978;2023-12-22T01:03:22;6.32;;;2.30;;
61685;SDS011;47592;45.904;8.978;2023-12-22T01:05:47;4.22;;;1.65;;
61685;SDS011;47592;45.904;8.978;2023-12-22T01:08:15;3.28;;;1.10;;
61685;SDS011;47592;45.904;8.978;2023-12-22T01:10:40;3.30;;;0.80;;
61685;SDS011;47592;45.904;8.978;2023-12-22T01:13:05;3.30;;;0.82;;
61685;SDS011;47592;45.904;8.978;2023-12-22T01:15:31;1.95;;;0.70;;
61685;SDS011;47592;45.904;8.978;2023-12-22T01:17:56;2.35;;;0.90;;
61685;SDS011;47592;45.904;8.978;2023-12-22T01:20:26;2.72;;;0.80;;
61685;SDS011;47592;45.904;8.978;2023-12-22T01:22:54;2.45;;;0.77;;
61685;SDS011;47592;45.904;8.978;2023-12-22T01:25:19;2.50;;;0.77;;
61685;SDS011;47592;45.904;8.978;2023-12-22T01:27:48;2.63;;;1.10;;
61685;SDS011;47592;45.904;8.978;2023-12-22T01:30:15;2.05;;;0.70;;
61685;SDS011;47592;45.904;8.978;2023-12-22T01:32:43;2.50;;;0.80;;
61685;SDS011;47592;45.904;8.978;2023-12-22T01:35:08;2.38;;;0.80;;
61685;SDS011;47592;45.904;8.978;2023-12-22T01:37:38;2.13;;;0.75;;
61685;SDS011;47592;45.904;8.978;2023-12-22T01:40:08;2.45;;;0.70;;
61685;SDS011;47592;45.904;8.978;2023-12-22T01:42:33;2.92;;;0.80;;
61685;SDS011;47592;45.904;8.978;2023-12-22T01:44:59;2.00;;;0.70;;
61685;SDS011;47592;45.904;8.978;2023-12-22T01:47:27;1.80;;;0.60;;
61685;SDS011;47592;45.904;8.978;2023-12-22T01:49:52;2.38;;;0.70;;
61685;SDS011;47592;45.904;8.978;2023-12-22T01:52:20;2.08;;;0.70;;
61685;SDS011;47592;45.904;8.978;2023-12-22T01:54:48;1.67;;;0.60;;
61685;SDS011;47592;45.904;8.978;2023-12-22T01:57:14;1.83;;;0.60;;
61685;SDS011;47592;45.904;8.978;2023-12-22T01:59:42;3.08;;;0.70;;
61685;SDS011;47592;45.904;8.978;2023-12-22T02:02:13;2.33;;;0.68;;
61685;SDS011;47592;45.904;8.978;2023-12-22T02:04:41;1.67;;;0.55;;
61685;SDS011;47592;45.904;8.978;2023-12-22T02:07:07;2.17;;;0.60;;
61685;SDS011;47592;45.904;8.978;2023-12-22T02:09:34;1.52;;;0.45;;
61685;SDS011;47592;45.904;8.978;2023-12-22T02:12:00;2.05;;;0.63;;
61685;SDS011;47592;45.904;8.978;2023-12-22T02:14:25;2.58;;;0.70;;
61685;SDS011;47592;45.904;8.978;2023-12-22T02:16:52;2.75;;;0.70;;
61685;SDS011;47592;45.904;8.978;2023-12-22T02:19:34;1.40;;;0.50;;
61685;SDS011;47592;45.904;8.978;2023-12-22T02:22:08;2.05;;;0.73;;
61685;SDS011;47592;45.904;8.978;2023-12-22T02:24:34;2.53;;;0.70;;
61685;SDS011;47592;45.904;8.978;2023-12-22T02:27:03;2.40;;;0.60;;
61685;SDS011;47592;45.904;8.978;2023-12-22T02:29:37;2.67;;;0.60;;
61685;SDS011;47592;45.904;8.978;2023-12-22T02:32:07;2.55;;;0.63;;
61685;SDS011;47592;45.904;8.978;2023-12-22T02:34:39;2.15;;;0.70;;
61685;SDS011;47592;45.904;8.978;2023-12-22T02:37:08;2.58;;;0.70;;
61685;SDS011;47592;45.904;8.978;2023-12-22T02:39:34;2.85;;;0.80;;
61685;SDS011;47592;45.904;8.978;2023-12-22T02:42:03;2.55;;;0.80;;
61685;SDS011;47592;45.904;8.978;2023-12-22T02:44:32;2.15;;;0.75;;
61685;SDS011;47592;45.904;8.978;2023-12-22T02:46:59;2.35;;;0.70;;
61685;SDS011;47592;45.904;8.978;2023-12-22T02:49:25;3.00;;;0.80;;
61685;SDS011;47592;45.904;8.978;2023-12-22T02:51:50;1.88;;;0.57;;
61685;SDS011;47592;45.904;8.978;2023-12-22T02:54:18;2.25;;;0.50;;
61685;SDS011;47592;45.904;8.978;2023-12-22T02:56:45;4.22;;;0.63;;
61685;SDS011;47592;45.904;8.978;2023-12-22T02:59:11;1.20;;;0.43;;
61685;SDS011;47592;45.904;8.978;2023-12-22T03:01:36;1.27;;;0.40;;
61685;SDS011;47592;45.904;8.978;2023-12-22T03:04:06;2.58;;;0.60;;
61685;SDS011;47592;45.904;8.978;2023-12-22T03:06:34;2.22;;;0.45;;
61685;SDS011;47592;45.904;8.978;2023-12-22T03:09:02;1.65;;;0.50;;
61685;SDS011;47592;45.904;8.978;2023-12-22T03:11:27;2.92;;;0.60;;
61685;SDS011;47592;45.904;8.978;2023-12-22T03:13:53;2.38;;;0.50;;
61685;SDS011;47592;45.904;8.978;2023-12-22T03:16:18;2.17;;;0.65;;
61685;SDS011;47592;45.904;8.978;2023-12-22T03:18:46;1.45;;;0.50;;
61685;SDS011;47592;45.904;8.978;2023-12-22T03:21:20;2.08;;;0.40;;
61685;SDS011;47592;45.904;8.978;2023-12-22T03:23:45;0.52;;;0.20;;
61685;SDS011;47592;45.904;8.978;2023-12-22T03:26:11;1.77;;;0.40;;
61685;SDS011;47592;45.904;8.978;2023-12-22T03:28:36;2.22;;;0.40;;
61685;SDS011;47592;45.904;8.978;2023-12-22T03:31:06;1.25;;;0.32;;
61685;SDS011;47592;45.904;8.978;2023-12-22T03:33:35;1.50;;;0.38;;
61685;SDS011;47592;45.904;8.978;2023-12-22T03:36:05;0.75;;;0.30;;
61685;SDS011;47592;45.904;8.978;2023-12-22T03:38:33;1.25;;;0.30;;
61685;SDS011;47592;45.904;8.978;2023-12-22T03:40:58;0.82;;;0.30;;
61685;SDS011;47592;45.904;8.978;2023-12-22T03:43:23;1.33;;;0.40;;
61685;SDS011;47592;45.904;8.978;2023-12-22T03:45:49;1.35;;;0.30;;
61685;SDS011;47592;45.904;8.978;2023-12-22T03:48:16;1.15;;;0.40;;
61685;SDS011;47592;45.904;8.978;2023-12-22T03:50:42;2.00;;;0.40;;
61685;SDS011;47592;45.904;8.978;2023-12-22T03:53:09;2.10;;;0.40;;
61685;SDS011;47592;45.904;8.978;2023-12-22T03:55:35;1.25;;;0.40;;
61685;SDS011;47592;45.904;8.978;2023-12-22T03:58:02;0.90;;;0.30;;
61685;SDS011;47592;45.904;8.978;2023-12-22T04:00:29;1.40;;;0.38;;
61685;SDS011;47592;45.904;8.978;2023-12-22T04:02:55;1.08;;;0.25;;
61685;SDS011;47592;45.904;8.978;2023-12-22T04:05:20;0.35;;;0.22;;
61685;SDS011;47592;45.904;8.978;2023-12-22T04:07:46;2.80;;;0.50;;
61685;SDS011;47592;45.904;8.978;2023-12-22T04:10:15;0.77;;;0.30;;
61685;SDS011;47592;45.904;8.978;2023-12-22T04:12:42;0.50;;;0.25;;
61685;SDS011;47592;45.904;8.978;2023-12-22T04:15:10;0.70;;;0.20;;
61685;SDS011;47592;45.904;8.978;2023-12-22T04:17:36;1.42;;;0.40;;
61685;SDS011;47592;45.904;8.978;2023-12-22T04:20:01;1.48;;;0.30;;
61685;SDS011;47592;45.904;8.978;2023-12-22T04:22:27;1.45;;;0.20;;
61685;SDS011;47592;45.904;8.978;2023-12-22T04:24:52;0.73;;;0.10;;
61685;SDS011;47592;45.904;8.978;2023-12-22T04:27:20;0.40;;;0.20;;
61685;SDS011;47592;45.904;8.978;2023-12-22T04:29:47;1.75;;;0.20;;
61685;SDS011;47592;45.904;8.978;2023-12-22T04:32:13;0.60;;;0.10;;
61685;SDS011;47592;45.904;8.978;2023-12-22T04:34:38;0.22;;;0.10;;
61685;SDS011;47592;45.904;8.978;2023-12-22T04:37:06;3.58;;;0.30;;
61685;SDS011;47592;45.904;8.978;2023-12-22T04:39:33;1.15;;;0.30;;
61685;SDS011;47592;45.904;8.978;2023-12-22T04:42:01;1.05;;;0.20;;
61685;SDS011;47592;45.904;8.978;2023-12-22T04:44:26;1.10;;;0.20;;
61685;SDS011;47592;45.904;8.978;2023-12-22T04:46:54;1.10;;;0.20;;
61685;SDS011;47592;45.904;8.978;2023-12-22T04:49:20;0.70;;;0.20;;
61685;SDS011;47592;45.904;8.978;2023-12-22T04:51:45;2.00;;;0.50;;
61685;SDS011;47592;45.904;8.978;2023-12-22T04:54:10;1.05;;;0.32;;
61685;SDS011;47592;45.904;8.978;2023-12-22T04:56:37;1.23;;;0.20;;
61685;SDS011;47592;45.904;8.978;2023-12-22T04:59:03;1.10;;;0.20;;
61685;SDS011;47592;45.904;8.978;2023-12-22T05:01:28;1.40;;;0.20;;
61685;SDS011;47592;45.904;8.978;2023-12-22T05:03:55;0.55;;;0.20;;
61685;SDS011;47592;45.904;8.978;2023-12-22T05:06:24;1.13;;;0.28;;
61685;SDS011;47592;45.904;8.978;2023-12-22T05:08:49;2.05;;;0.20;;
61685;SDS011;47592;45.904;8.978;2023-12-22T05:11:15;1.05;;;0.35;;
61685;SDS011;47592;45.904;8.978;2023-12-22T05:13:40;2.05;;;0.20;;
61685;SDS011;47592;45.904;8.978;2023-12-22T05:16:09;1.30;;;0.30;;
61685;SDS011;47592;45.904;8.978;2023-12-22T05:18:37;0.63;;;0.20;;
61685;SDS011;47592;45.904;8.978;2023-12-22T05:21:03;1.92;;;0.20;;
61685;SDS011;47592;45.904;8.978;2023-12-22T05:23:29;2.35;;;0.40;;
61685;SDS011;47592;45.904;8.978;2023-12-22T05:25:54;1.00;;;0.30;;
61685;SDS011;47592;45.904;8.978;2023-12-22T05:28:22;1.15;;;0.13;;
61685;SDS011;47592;45.904;8.978;2023-12-22T05:30:47;0.55;;;0.20;;
61685;SDS011;47592;45.904;8.978;2023-12-22T05:33:15;0.20;;;0.10;;
61685;SDS011;47592;45.904;8.978;2023-12-22T05:35:42;2.28;;;0.35;;
61685;SDS011;47592;45.904;8.978;2023-12-22T05:38:08;1.70;;;0.20;;
61685;SDS011;47592;45.904;8.978;2023-12-22T05:40:33;2.50;;;0.40;;
61685;SDS011;47592;45.904;8.978;2023-12-22T05:42:59;2.75;;;0.40;;
61685;SDS011;47592;45.904;8.978;2023-12-22T05:45:29;1.10;;;0.40;;
61685;SDS011;47592;45.904;8.978;2023-12-22T05:47:57;0.52;;;0.17;;
61685;SDS011;47592;45.904;8.978;2023-12-22T05:50:23;1.15;;;0.20;;
61685;SDS011;47592;45.904;8.978;2023-12-22T05:52:51;1.70;;;0.20;;
61685;SDS011;47592;45.904;8.978;2023-12-22T05:55:16;0.55;;;0.10;;
61685;SDS011;47592;45.904;8.978;2023-12-22T05:57:44;1.45;;;0.10;;
61685;SDS011;47592;45.904;8.978;2023-12-22T06:00:12;5.32;;;0.32;;
61685;SDS011;47592;45.904;8.978;2023-12-22T06:02:40;0.60;;;0.15;;
61685;SDS011;47592;45.904;8.978;2023-12-22T06:05:05;1.58;;;0.20;;
61685;SDS011;47592;45.904;8.978;2023-12-22T06:07:31;0.65;;;0.20;;
61685;SDS011;47592;45.904;8.978;2023-12-22T06:09:56;0.47;;;0.10;;
61685;SDS011;47592;45.904;8.978;2023-12-22T06:12:24;0.63;;;0.15;;
61685;SDS011;47592;45.904;8.978;2023-12-22T06:14:52;0.55;;;0.13;;
61685;SDS011;47592;45.904;8.978;2023-12-22T06:17:17;1.08;;;0.30;;
61685;SDS011;47592;45.904;8.978;2023-12-22T06:19:42;1.17;;;0.20;;
61685;SDS011;47592;45.904;8.978;2023-12-22T06:22:10;1.25;;;0.20;;
61685;SDS011;47592;45.904;8.978;2023-12-22T06:24:38;0.93;;;0.30;;
61685;SDS011;47592;45.904;8.978;2023-12-22T06:27:05;0.85;;;0.20;;
61685;SDS011;47592;45.904;8.978;2023-12-22T06:29:31;0.95;;;0.20;;
61685;SDS011;47592;45.904;8.978;2023-12-22T06:31:59;1.00;;;0.20;;
61685;SDS011;47592;45.904;8.978;2023-12-22T06:34:25;1.35;;;0.32;;
61685;SDS011;47592;45.904;8.978;2023-12-22T06:36:50;0.90;;;0.20;;
61685;SDS011;47592;45.904;8.978;2023-12-22T06:39:20;1.10;;;0.20;;
61685;SDS011;47592;45.904;8.978;2023-12-22T06:41:46;1.38;;;0.35;;
61685;SDS011;47592;45.904;8.978;2023-12-22T06:44:11;2.60;;;0.40;;
61685;SDS011;47592;45.904;8.978;2023-12-22T06:46:37;1.25;;;0.25;;
61685;SDS011;47592;45.904;8.978;2023-12-22T06:49:02;0.82;;;0.20;;
61685;SDS011;47592;45.904;8.978;2023-12-22T06:51:29;2.25;;;0.80;;
61685;SDS011;47592;45.904;8.978;2023-12-22T06:53:55;0.80;;;0.10;;
61685;SDS011;47592;45.904;8.978;2023-12-22T06:56:22;0.52;;;0.10;;
61685;SDS011;47592;45.904;8.978;2023-12-22T06:58:49;1.02;;;0.20;;
61685;SDS011;47592;45.904;8.978;2023-12-22T07:03:56;1.65;;;0.52;;
61685;SDS011;47592;45.904;8.978;2023-12-22T07:06:22;2.72;;;0.20;;
61685;SDS011;47592;45.904;8.978;2023-12-22T07:11:36;0.85;;;0.10;;
61685;SDS011;47592;45.904;8.978;2023-12-22T07:14:04;1.45;;;0.20;;
61685;SDS011;47592;45.904;8.978;2023-12-22T07:16:30;1.38;;;0.47;;
61685;SDS011;47592;45.904;8.978;2023-12-22T07:18:55;1.38;;;0.10;;
61685;SDS011;47592;45.904;8.978;2023-12-22T07:21:20;1.40;;;0.20;;
61685;SDS011;47592;45.904;8.978;2023-12-22T07:23:48;0.63;;;0.15;;
61685;SDS011;47592;45.904;8.978;2023-12-22T07:26:13;2.28;;;0.25;;
61685;SDS011;47592;45.904;8.978;2023-12-22T07:28:39;0.13;;;0.10;;
61685;SDS011;47592;45.904;8.978;2023-12-22T07:31:04;0.52;;;0.10;;
61685;SDS011;47592;45.904;8.978;2023-12-22T07:33:30;0.85;;;0.28;;
61685;SDS011;47592;45.904;8.978;2023-12-22T07:35:56;0.95;;;0.20;;
61685;SDS011;47592;45.904;8.978;2023-12-22T07:38:21;0.65;;;0.10;;
61685;SDS011;47592;45.904;8.978;2023-12-22T07:40:46;0.57;;;0.10;;
61685;SDS011;47592;45.904;8.978;2023-12-22T07:43:12;0.95;;;0.10;;
61685;SDS011;47592;45.904;8.978;2023-12-22T07:45:38;0.90;;;0.20;;
61685;SDS011;47592;45.904;8.978;2023-12-22T07:48:03;0.85;;;0.20;;
61685;SDS011;47592;45.904;8.978;2023-12-22T07:50:29;0.47;;;0.10;;
61685;SDS011;47592;45.904;8.978;2023-12-22T07:52:54;0.10;;;0.10;;
61685;SDS011;47592;45.904;8.978;2023-12-22T07:55:23;0.52;;;0.10;;
61685;SDS011;47592;45.904;8.978;2023-12-22T07:57:49;0.40;;;0.10;;
61685;SDS011;47592;45.904;8.978;2023-12-22T08:00:15;0.00;;;0.00;;
61685;SDS011;47592;45.904;8.978;2023-12-22T08:02:46;0.73;;;0.10;;
61685;SDS011;47592;45.904;8.978;2023-12-22T08:05:13;0.52;;;0.20;;
61685;SDS011;47592;45.904;8.978;2023-12-22T08:07:38;0.10;;;0.00;;
61685;SDS011;47592;45.904;8.978;2023-12-22T08:10:06;0.10;;;0.00;;
61685;SDS011;47592;45.904;8.978;2023-12-22T08:12:34;0.10;;;0.10;;
61685;SDS011;47592;45.904;8.978;2023-12-22T08:15:00;0.20;;;0.10;;
61685;SDS011;47592;45.904;8.978;2023-12-22T08:17:28;0.60;;;0.13;;
61685;SDS011;47592;45.904;8.978;2023-12-22T08:19:56;0.70;;;0.15;;
61685;SDS011;47592;45.904;8.978;2023-12-22T08:22:22;0.40;;;0.13;;
61685;SDS011;47592;45.904;8.978;2023-12-22T08:24:48;0.17;;;0.10;;
61685;SDS011;47592;45.904;8.978;2023-12-22T08:27:16;0.35;;;0.10;;
61685;SDS011;47592;45.904;8.978;2023-12-22T08:29:42;0.35;;;0.17;;
61685;SDS011;47592;45.904;8.978;2023-12-22T08:32:10;0.52;;;0.10;;
61685;SDS011;47592;45.904;8.978;2023-12-22T08:34:36;0.10;;;0.10;;
61685;SDS011;47592;45.904;8.978;2023-12-22T08:37:03;0.22;;;0.10;;
61685;SDS011;47592;45.904;8.978;2023-12-22T08:39:29;0.40;;;0.15;;
61685;SDS011;47592;45.904;8.978;2023-12-22T08:41:57;0.10;;;0.10;;
61685;SDS011;47592;45.904;8.978;2023-12-22T08:44:27;1.45;;;0.85;;
61685;SDS011;47592;45.904;8.978;2023-12-22T08:46:52;1.27;;;0.30;;
61685;SDS011;47592;45.904;8.978;2023-12-22T08:49:18;0.55;;;0.20;;
61685;SDS011;47592;45.904;8.978;2023-12-22T08:51:43;0.57;;;0.13;;
61685;SDS011;47592;45.904;8.978;2023-12-22T08:54:08;0.28;;;0.10;;
61685;SDS011;47592;45.904;8.978;2023-12-22T08:56:34;4.15;;;1.17;;
61685;SDS011;47592;45.904;8.978;2023-12-22T08:59:01;1.60;;;0.43;;
61685;SDS011;47592;45.904;8.978;2023-12-22T09:01:27;2.35;;;0.40;;
61685;SDS011;47592;45.904;8.978;2023-12-22T09:03:52;2.47;;;0.80;;
61685;SDS011;47592;45.904;8.978;2023-12-22T09:06:21;0.93;;;0.32;;
61685;SDS011;47592;45.904;8.978;2023-12-22T09:08:49;0.88;;;0.10;;
61685;SDS011;47592;45.904;8.978;2023-12-22T09:11:16;2.70;;;0.70;;
61685;SDS011;47592;45.904;8.978;2023-12-22T09:13:44;1.42;;;0.40;;
61685;SDS011;47592;45.904;8.978;2023-12-22T09:16:10;2.42;;;0.70;;
61685;SDS011;47592;45.904;8.978;2023-12-22T09:18:36;4.40;;;1.58;;
61685;SDS011;47592;45.904;8.978;2023-12-22T09:21:04;5.05;;;1.73;;
61685;SDS011;47592;45.904;8.978;2023-12-22T09:23:29;3.58;;;1.02;;
61685;SDS011;47592;45.904;8.978;2023-12-22T09:25:56;4.20;;;1.25;;
61685;SDS011;47592;45.904;8.978;2023-12-22T09:28:24;2.42;;;0.50;;
61685;SDS011;47592;45.904;8.978;2023-12-22T09:30:50;1.95;;;0.20;;
61685;SDS011;47592;45.904;8.978;2023-12-22T09:33:15;0.77;;;0.10;;
61685;SDS011;47592;45.904;8.978;2023-12-22T09:35:44;1.00;;;0.30;;
61685;SDS011;47592;45.904;8.978;2023-12-22T09:38:10;1.33;;;0.30;;
61685;SDS011;47592;45.904;8.978;2023-12-22T09:40:36;1.27;;;0.20;;
61685;SDS011;47592;45.904;8.978;2023-12-22T09:43:04;0.55;;;0.20;;
61685;SDS011;47592;45.904;8.978;2023-12-22T09:45:31;0.30;;;0.10;;
61685;SDS011;47592;45.904;8.978;2023-12-22T09:47:58;0.10;;;0.10;;
61685;SDS011;47592;45.904;8.978;2023-12-22T09:50:25;0.40;;;0.10;;
61685;SDS011;47592;45.904;8.978;2023-12-22T09:55:23;0.55;;;0.20;;
61685;SDS011;47592;45.904;8.978;2023-12-22T09:57:51;0.63;;;0.20;;
61685;SDS011;47592;45.904;8.978;2023-12-22T10:00:17;0.95;;;0.20;;
61685;SDS011;47592;45.904;8.978;2023-12-22T10:02:43;0.60;;;0.17;;
61685;SDS011;47592;45.904;8.978;2023-12-22T10:05:12;0.40;;;0.10;;
61685;SDS011;47592;45.904;8.978;2023-12-22T10:07:41;1.00;;;0.30;;
61685;SDS011;47592;45.904;8.978;2023-12-22T10:10:09;0.47;;;0.10;;
61685;SDS011;47592;45.904;8.978;2023-12-22T10:12:35;0.28;;;0.05;;
61685;SDS011;47592;45.904;8.978;2023-12-22T10:15:01;0.68;;;0.30;;
61685;SDS011;47592;45.904;8.978;2023-12-22T10:17:30;1.38;;;0.17;;
61685;SDS011;47592;45.904;8.978;2023-12-22T10:19:55;0.10;;;0.10;;
61685;SDS011;47592;45.904;8.978;2023-12-22T10:22:23;0.90;;;0.20;;
61685;SDS011;47592;45.904;8.978;2023-12-22T10:24:49;0.47;;;0.10;;
61685;SDS011;47592;45.904;8.978;2023-12-22T10:27:17;0.08;;;0.00;;
61685;SDS011;47592;45.904;8.978;2023-12-22T10:29:49;0.88;;;0.25;;
61685;SDS011;47592;45.904;8.978;2023-12-22T10:32:18;1.70;;;0.30;;
61685;SDS011;47592;45.904;8.978;2023-12-22T10:34:44;1.08;;;0.30;;
61685;SDS011;47592;45.904;8.978;2023-12-22T10:37:10;0.95;;;0.30;;
61685;SDS011;47592;45.904;8.978;2023-12-22T10:39:35;1.45;;;0.50;;
61685;SDS011;47592;45.904;8.978;2023-12-22T10:42:05;1.02;;;0.20;;
61685;SDS011;47592;45.904;8.978;2023-12-22T10:44:33;0.60;;;0.20;;
61685;SDS011;47592;45.904;8.978;2023-12-22T10:46:59;0.40;;;0.20;;
61685;SDS011;47592;45.904;8.978;2023-12-22T10:49:28;3.08;;;0.28;;
61685;SDS011;47592;45.904;8.978;2023-12-22T10:51:56;1.30;;;0.30;;
61685;SDS011;47592;45.904;8.978;2023-12-22T10:54:22;0.55;;;0.17;;
61685;SDS011;47592;45.904;8.978;2023-12-22T10:56:50;0.45;;;0.17;;
61685;SDS011;47592;45.904;8.978;2023-12-22T10:59:22;0.63;;;0.20;;
61685;SDS011;47592;45.904;8.978;2023-12-22T11:01:51;0.98;;;0.30;;
61685;SDS011;47592;45.904;8.978;2023-12-22T11:04:20;1.25;;;0.40;;
61685;SDS011;47592;45.904;8.978;2023-12-22T11:06:46;0.82;;;0.20;;
61685;SDS011;47592;45.904;8.978;2023-12-22T11:09:12;1.00;;;0.40;;
61685;SDS011;47592;45.904;8.978;2023-12-22T11:11:41;1.17;;;0.17;;
61685;SDS011;47592;45.904;8.978;2023-12-22T11:14:07;0.75;;;0.30;;
61685;SDS011;47592;45.904;8.978;2023-12-22T11:16:38;1.02;;;0.30;;
61685;SDS011;47592;45.904;8.978;2023-12-22T11:19:12;0.40;;;0.10;;
61685;SDS011;47592;45.904;8.978;2023-12-22T11:21:37;0.50;;;0.20;;
61685;SDS011;47592;45.904;8.978;2023-12-22T11:24:04;0.47;;;0.20;;
61685;SDS011;47592;45.904;8.978;2023-12-22T11:26:31;0.38;;;0.15;;
61685;SDS011;47592;45.904;8.978;2023-12-22T11:28:57;0.25;;;0.00;;
61685;SDS011;47592;45.904;8.978;2023-12-22T11:31:23;1.23;;;0.50;;
61685;SDS011;47592;45.904;8.978;2023-12-22T11:33:51;0.00;;;0.00;;
61685;SDS011;47592;45.904;8.978;2023-12-22T11:36:17;1.00;;;0.10;;
61685;SDS011;47592;45.904;8.978;2023-12-22T11:38:45;0.08;;;0.05;;
61685;SDS011;47592;45.904;8.978;2023-12-22T11:41:26;0.15;;;0.10;;
61685;SDS011;47592;45.904;8.978;2023-12-22T11:43:54;0.10;;;0.10;;
61685;SDS011;47592;45.904;8.978;2023-12-22T11:46:21;0.40;;;0.13;;
61685;SDS011;47592;45.904;8.978;2023-12-22T11:48:49;0.77;;;0.22;;
61685;SDS011;47592;45.904;8.978;2023-12-22T11:51:17;0.50;;;0.10;;
61685;SDS011;47592;45.904;8.978;2023-12-22T11:53:46;0.57;;;0.10;;
61685;SDS011;47592;45.904;8.978;2023-12-22T11:56:12;0.05;;;0.05;;
61685;SDS011;47592;45.904;8.978;2023-12-22T12:01:10;0.75;;;0.20;;
61685;SDS011;47592;45.904;8.978;2023-12-22T12:09:03;0.13;;;0.00;;
61685;SDS011;47592;45.904;8.978;2023-12-22T12:14:19;0.47;;;0.10;;
61685;SDS011;47592;45.904;8.978;2023-12-22T12:17:06;0.57;;;0.10;;
61685;SDS011;47592;45.904;8.978;2023-12-22T12:19:34;0.88;;;0.15;;
61685;SDS011;47592;45.904;8.978;2023-12-22T12:22:02;1.10;;;0.10;;
61685;SDS011;47592;45.904;8.978;2023-12-22T12:24:28;0.00;;;0.00;;
61685;SDS011;47592;45.904;8.978;2023-12-22T12:26:56;0.20;;;0.00;;
61685;SDS011;47592;45.904;8.978;2023-12-22T12:29:21;0.22;;;0.10;;
61685;SDS011;47592;45.904;8.978;2023-12-22T12:31:47;0.20;;;0.10;;
61685;SDS011;47592;45.904;8.978;2023-12-22T12:34:12;0.65;;;0.10;;
61685;SDS011;47592;45.904;8.978;2023-12-22T12:36:39;0.13;;;0.10;;
61685;SDS011;47592;45.904;8.978;2023-12-22T12:39:06;0.10;;;0.10;;
61685;SDS011;47592;45.904;8.978;2023-12-22T12:41:32;0.10;;;0.10;;
61685;SDS011;47592;45.904;8.978;2023-12-22T12:44:04;0.80;;;0.10;;
61685;SDS011;47592;45.904;8.978;2023-12-22T12:46:39;0.20;;;0.00;;
61685;SDS011;47592;45.904;8.978;2023-12-22T12:49:08;0.20;;;0.00;;
61685;SDS011;47592;45.904;8.978;2023-12-22T12:51:42;0.55;;;0.10;;
61685;SDS011;47592;45.904;8.978;2023-12-22T12:54:11;0.55;;;0.10;;
61685;SDS011;47592;45.904;8.978;2023-12-22T12:56:42;0.30;;;0.10;;
61685;SDS011;47592;45.904;8.978;2023-12-22T12:59:10;0.20;;;0.10;;
61685;SDS011;47592;45.904;8.978;2023-12-22T13:04:04;0.75;;;0.20;;
61685;SDS011;47592;45.904;8.978;2023-12-22T13:06:30;0.38;;;0.03;;
61685;SDS011;47592;45.904;8.978;2023-12-22T13:09:01;0.17;;;0.05;;
61685;SDS011;47592;45.904;8.978;2023-12-22T13:11:29;0.10;;;0.10;;
61685;SDS011;47592;45.904;8.978;2023-12-22T13:13:58;0.00;;;0.00;;
61685;SDS011;47592;45.904;8.978;2023-12-22T13:16:29;1.35;;;0.10;;
61685;SDS011;47592;45.904;8.978;2023-12-22T13:18:57;1.50;;;0.17;;
61685;SDS011;47592;45.904;8.978;2023-12-22T13:21:23;0.05;;;0.00;;
61685;SDS011;47592;45.904;8.978;2023-12-22T13:24:07;0.10;;;0.00;;
61685;SDS011;47592;45.904;8.978;2023-12-22T13:26:36;0.35;;;0.10;;
61685;SDS011;47592;45.904;8.978;2023-12-22T13:29:02;0.10;;;0.10;;
61685;SDS011;47592;45.904;8.978;2023-12-22T13:31:27;0.20;;;0.08;;
61685;SDS011;47592;45.904;8.978;2023-12-22T13:33:53;1.88;;;0.10;;
61685;SDS011;47592;45.904;8.978;2023-12-22T13:36:18;0.30;;;0.10;;
61685;SDS011;47592;45.904;8.978;2023-12-22T13:38:49;0.30;;;0.00;;
61685;SDS011;47592;45.904;8.978;2023-12-22T13:41:17;0.40;;;0.10;;
61685;SDS011;47592;45.904;8.978;2023-12-22T13:43:43;0.30;;;0.10;;
61685;SDS011;47592;45.904;8.978;2023-12-22T13:46:11;0.20;;;0.10;;
61685;SDS011;47592;45.904;8.978;2023-12-22T13:48:37;2.05;;;0.13;;
61685;SDS011;47592;45.904;8.978;2023-12-22T13:51:03;0.63;;;0.10;;
61685;SDS011;47592;45.904;8.978;2023-12-22T13:53:31;1.10;;;0.10;;
61685;SDS011;47592;45.904;8.978;2023-12-22T13:55:56;0.20;;;0.00;;
61685;SDS011;47592;45.904;8.978;2023-12-22T13:58:23;0.93;;;0.17;;
61685;SDS011;47592;45.904;8.978;2023-12-22T14:00:49;0.15;;;0.08;;
61685;SDS011;47592;45.904;8.978;2023-12-22T14:03:16;0.30;;;0.10;;
61685;SDS011;47592;45.904;8.978;2023-12-22T14:05:43;0.08;;;0.03;;
61685;SDS011;47592;45.904;8.978;2023-12-22T14:08:09;1.23;;;0.10;;
61685;SDS011;47592;45.904;8.978;2023-12-22T14:10:34;0.00;;;0.00;;
61685;SDS011;47592;45.904;8.978;2023-12-22T14:13:02;0.10;;;0.10;;
61685;SDS011;47592;45.904;8.978;2023-12-22T14:15:28;0.05;;;0.00;;
61685;SDS011;47592;45.904;8.978;2023-12-22T14:17:58;0.68;;;0.10;;
61685;SDS011;47592;45.904;8.978;2023-12-22T14:20:24;0.13;;;0.00;;
61685;SDS011;47592;45.904;8.978;2023-12-22T14:22:54;0.45;;;0.10;;
61685;SDS011;47592;45.904;8.978;2023-12-22T14:25:20;1.05;;;0.15;;
61685;SDS011;47592;45.904;8.978;2023-12-22T14:27:45;0.43;;;0.15;;
61685;SDS011;47592;45.904;8.978;2023-12-22T14:30:10;0.63;;;0.30;;
61685;SDS011;47592;45.904;8.978;2023-12-22T14:32:38;1.02;;;0.10;;
61685;SDS011;47592;45.904;8.978;2023-12-22T14:35:04;0.00;;;0.00;;
61685;SDS011;47592;45.904;8.978;2023-12-22T14:37:30;0.50;;;0.10;;
61685;SDS011;47592;45.904;8.978;2023-12-22T14:39:55;1.15;;;0.30;;
61685;SDS011;47592;45.904;8.978;2023-12-22T14:42:20;0.75;;;0.20;;
61685;SDS011;47592;45.904;8.978;2023-12-22T14:44:48;0.20;;;0.05;;
61685;SDS011;47592;45.904;8.978;2023-12-22T14:47:14;0.77;;;0.20;;
61685;SDS011;47592;45.904;8.978;2023-12-22T14:49:40;0.68;;;0.15;;
61685;SDS011;47592;45.904;8.978;2023-12-22T14:52:05;0.50;;;0.17;;
61685;SDS011;47592;45.904;8.978;2023-12-22T14:54:33;1.17;;;0.20;;
61685;SDS011;47592;45.904;8.978;2023-12-22T14:57:01;0.57;;;0.20;;
61685;SDS011;47592;45.904;8.978;2023-12-22T14:59:26;0.45;;;0.10;;
61685;SDS011;47592;45.904;8.978;2023-12-22T15:01:52;0.63;;;0.20;;
61685;SDS011;47592;45.904;8.978;2023-12-22T15:04:17;0.43;;;0.10;;
61685;SDS011;47592;45.904;8.978;2023-12-22T15:06:46;0.52;;;0.20;;
61685;SDS011;47592;45.904;8.978;2023-12-22T15:09:11;0.47;;;0.10;;